Time;durP1;ratioP1;P1;durP2;ratioP2;P2;SDS_P1;SDS_P2;PMS_P1;PMS_P2;Temp;Humidity;BMP_temperature;BMP_pressure;BME280_temperature;BME280_humidity;BME280_pressure;Samples;Min_cycle;Max_cycle;Signal;HPM_P1;HPM_P2
2022/04/15 00:00:28;;;;;;;18.00;8.07;;;6.10;99.90;;;;;;4993759;28;20524;-85
2022/04/15 00:02:54;;;;;;;18.40;8.10;;;6.00;99.90;;;;;;4993462;28;20100;-85
2022/04/15 00:05:36;;;;;;;18.77;8.10;;;6.00;99.90;;;;;;4994326;28;20433;-85
2022/04/15 00:08:04;;;;;;;20.73;7.67;;;5.90;99.90;;;;;;4994773;28;20157;-85
2022/04/15 00:10:30;;;;;;;17.63;7.77;;;6.00;99.90;;;;;;4993678;28;20046;-85
2022/04/15 00:12:56;;;;;;;15.47;7.37;;;5.90;99.90;;;;;;4992763;28;20061;-85
2022/04/15 00:15:22;;;;;;;20.13;7.87;;;5.90;99.90;;;;;;4994536;28;20376;-85
2022/04/15 00:17:48;;;;;;;19.13;8.83;;;5.90;99.90;;;;;;4993595;28;20049;-86
2022/04/15 00:20:13;;;;;;;18.97;7.80;;;5.90;99.90;;;;;;4994080;28;20038;-85
2022/04/15 00:22:39;;;;;;;18.37;8.17;;;5.80;99.90;;;;;;4993304;28;20084;-85
2022/04/15 00:25:05;;;;;;;16.67;7.57;;;5.80;99.90;;;;;;4994670;28;20038;-85
2022/04/15 00:27:31;;;;;;;21.40;7.90;;;5.80;99.90;;;;;;4993865;28;20042;-85
2022/04/15 00:29:56;;;;;;;16.10;7.57;;;5.70;99.90;;;;;;4994330;28;20041;-85
2022/04/15 00:32:22;;;;;;;19.90;8.43;;;5.70;99.90;;;;;;4993500;28;20514;-85
2022/04/15 00:34:47;;;;;;;17.90;8.10;;;5.70;99.90;;;;;;4991924;28;20478;-85
2022/04/15 00:37:13;;;;;;;19.53;7.50;;;5.60;99.90;;;;;;4992996;28;20050;-85
2022/04/15 00:39:45;;;;;;;19.77;8.07;;;5.60;99.90;;;;;;4993908;28;20054;-85
2022/04/15 00:42:11;;;;;;;16.70;8.07;;;5.50;99.90;;;;;;4994052;28;20048;-85
2022/04/15 00:44:36;;;;;;;18.30;8.40;;;5.50;99.90;;;;;;4995637;28;20050;-85
2022/04/15 00:47:18;;;;;;;22.20;8.67;;;5.50;99.90;;;;;;4993165;28;20054;-85
2022/04/15 00:49:44;;;;;;;17.50;8.10;;;5.40;99.90;;;;;;4992449;28;20043;-85
2022/04/15 00:52:13;;;;;;;19.53;7.80;;;5.40;99.90;;;;;;4994362;28;20137;-85
2022/04/15 00:54:41;;;;;;;21.00;8.47;;;5.40;99.90;;;;;;4992773;28;20057;-85
2022/04/15 00:57:09;;;;;;;19.80;8.43;;;5.40;99.90;;;;;;4992945;28;20096;-85
2022/04/15 00:59:38;;;;;;;22.60;8.90;;;5.40;99.90;;;;;;4993692;28;20487;-85
2022/04/15 01:02:05;;;;;;;23.53;8.30;;;5.30;99.90;;;;;;4992183;28;20046;-85
2022/04/15 01:04:31;;;;;;;20.60;8.43;;;5.30;99.90;;;;;;4993793;28;20045;-85
2022/04/15 01:07:02;;;;;;;19.37;8.20;;;5.30;99.90;;;;;;4992316;28;20058;-85
2022/04/15 01:09:32;;;;;;;16.73;8.10;;;5.30;99.90;;;;;;4993370;28;20042;-85
2022/04/15 01:11:58;;;;;;;19.67;8.60;;;5.30;99.90;;;;;;4992245;28;20089;-85
2022/04/15 01:14:25;;;;;;;18.40;8.20;;;5.30;99.90;;;;;;4993693;28;20120;-85
2022/04/15 01:16:51;;;;;;;20.57;9.33;;;5.40;99.90;;;;;;4991500;28;20061;-85
2022/04/15 01:19:17;;;;;;;19.50;8.70;;;5.40;99.90;;;;;;4991989;28;20050;-85
2022/04/15 01:21:45;;;;;;;19.00;9.07;;;5.50;99.90;;;;;;4992577;28;20074;-85
2022/04/15 01:24:13;;;;;;;19.17;8.97;;;5.50;99.90;;;;;;4991732;28;20425;-85
2022/04/15 01:26:39;;;;;;;20.30;8.83;;;5.60;99.90;;;;;;4992124;28;20145;-85
2022/04/15 01:29:04;;;;;;;22.57;9.00;;;5.70;99.90;;;;;;4993487;28;20141;-85
2022/04/15 01:31:31;;;;;;;20.70;9.13;;;5.80;99.90;;;;;;4991670;28;20034;-85
2022/04/15 01:33:59;;;;;;;22.43;9.17;;;5.80;99.90;;;;;;4992676;28;20512;-85
2022/04/15 01:36:25;;;;;;;20.63;9.03;;;5.90;99.90;;;;;;4992853;28;20038;-85
2022/04/15 01:38:57;;;;;;;18.70;8.97;;;6.00;99.90;;;;;;4992146;28;20056;-85
2022/04/15 01:41:23;;;;;;;17.20;8.53;;;6.00;99.90;;;;;;4993659;28;20078;-85
2022/04/15 01:43:49;;;;;;;18.20;8.53;;;6.00;99.90;;;;;;4992457;28;20462;-85
2022/04/15 01:46:15;;;;;;;17.47;9.23;;;6.10;99.90;;;;;;4991963;28;20085;-85
2022/04/15 01:48:40;;;;;;;19.37;9.50;;;6.10;99.90;;;;;;4993033;28;20074;-85
2022/04/15 01:51:06;;;;;;;17.73;9.00;;;6.10;99.90;;;;;;4991358;28;20490;-85
2022/04/15 01:53:31;;;;;;;17.03;8.50;;;6.10;99.90;;;;;;4991923;28;20061;-85
2022/04/15 01:55:57;;;;;;;18.63;9.20;;;6.20;99.90;;;;;;4993038;28;20096;-85
2022/04/15 01:58:22;;;;;;;24.80;9.07;;;6.20;99.90;;;;;;4992444;28;20050;-85
2022/04/15 02:00:48;;;;;;;17.30;8.63;;;6.20;99.90;;;;;;4992830;28;20058;-85
2022/04/15 02:03:14;;;;;;;20.43;8.73;;;6.10;99.90;;;;;;4993280;28;20398;-85
2022/04/15 02:05:39;;;;;;;15.97;8.50;;;6.20;99.90;;;;;;4990539;28;20080;-85
2022/04/15 02:08:06;;;;;;;20.93;9.07;;;6.20;99.90;;;;;;4992040;28;20482;-86
2022/04/15 02:10:32;;;;;;;19.10;8.83;;;6.30;99.90;;;;;;4992924;28;20437;-85
2022/04/15 02:12:57;;;;;;;19.33;8.73;;;6.30;99.90;;;;;;4990961;28;20053;-85
2022/04/15 02:15:23;;;;;;;16.77;8.67;;;6.30;99.90;;;;;;4993251;28;20394;-85
2022/04/15 02:17:48;;;;;;;17.60;8.07;;;6.30;99.90;;;;;;4991486;28;20085;-86
2022/04/15 02:20:14;;;;;;;16.40;8.23;;;6.30;99.90;;;;;;4992476;28;20042;-85
2022/04/15 02:22:39;;;;;;;15.57;7.60;;;6.30;99.90;;;;;;4992748;28;20045;-86
2022/04/15 02:25:06;;;;;;;17.53;8.20;;;6.30;99.90;;;;;;4992174;28;20062;-86
2022/04/15 02:27:31;;;;;;;17.63;8.60;;;6.30;99.90;;;;;;4990978;28;20509;-85
2022/04/15 02:29:57;;;;;;;17.33;8.33;;;6.30;99.90;;;;;;4992639;28;20043;-85
2022/04/15 02:32:23;;;;;;;18.63;8.80;;;6.30;99.90;;;;;;4993303;28;20056;-86
2022/04/15 02:34:50;;;;;;;16.43;7.73;;;6.30;99.90;;;;;;4991952;28;20046;-86
2022/04/15 02:37:16;;;;;;;19.60;8.75;;;6.40;99.90;;;;;;4991736;28;20060;-85
2022/04/15 02:39:41;;;;;;;16.93;8.20;;;6.40;99.90;;;;;;4991410;28;20046;-85
2022/04/15 02:42:08;;;;;;;17.37;8.33;;;6.40;99.90;;;;;;4995392;28;20097;-85
2022/04/15 02:44:36;;;;;;;18.48;8.68;;;6.30;99.90;;;;;;4995241;28;20415;-85
2022/04/15 02:47:01;;;;;;;18.03;8.00;;;6.30;99.90;;;;;;4995774;28;20061;-86
2022/04/15 02:49:28;;;;;;;16.77;8.63;;;6.30;99.90;;;;;;4996608;28;20046;-85
2022/04/15 02:51:55;;;;;;;19.10;8.37;;;6.30;99.90;;;;;;4995295;28;20133;-85
2022/04/15 02:54:20;;;;;;;16.67;8.43;;;6.40;99.90;;;;;;4994525;28;20046;-85
2022/04/15 02:56:46;;;;;;;18.40;8.80;;;6.40;99.90;;;;;;4996171;28;20100;-85
2022/04/15 02:59:11;;;;;;;16.27;8.03;;;6.40;99.90;;;;;;4994823;28;20054;-85
2022/04/15 03:01:37;;;;;;;18.13;8.20;;;6.40;99.90;;;;;;4995628;28;20093;-85
2022/04/15 03:04:02;;;;;;;20.33;9.07;;;6.40;99.90;;;;;;4994525;28;20045;-85
2022/04/15 03:06:28;;;;;;;20.23;8.10;;;6.50;99.90;;;;;;4996129;28;20038;-86
2022/04/15 03:08:55;;;;;;;20.10;8.10;;;6.50;99.90;;;;;;4995032;28;20043;-86
2022/04/15 03:11:20;;;;;;;19.70;8.53;;;6.50;99.90;;;;;;4994696;28;20053;-86
2022/04/15 03:13:46;;;;;;;19.53;7.73;;;6.50;99.90;;;;;;4994457;28;20394;-85
2022/04/15 03:16:11;;;;;;;17.63;7.43;;;6.50;99.90;;;;;;4994065;28;20137;-86
2022/04/15 03:18:37;;;;;;;17.80;8.20;;;6.50;99.90;;;;;;4995774;28;20042;-85
2022/04/15 03:21:03;;;;;;;16.67;8.33;;;6.60;99.90;;;;;;4994535;28;20053;-85
2022/04/15 03:23:29;;;;;;;19.10;8.53;;;6.60;99.90;;;;;;4995121;28;20046;-86
2022/04/15 03:25:54;;;;;;;17.60;8.20;;;6.60;99.90;;;;;;4995161;28;20044;-86
2022/04/15 03:28:20;;;;;;;16.75;8.25;;;6.60;99.90;;;;;;4995874;28;20490;-86
2022/04/15 03:30:46;;;;;;;17.43;7.80;;;6.60;99.90;;;;;;4993308;28;20490;-85
2022/04/15 03:33:12;;;;;;;17.43;8.23;;;6.60;99.90;;;;;;4994256;28;20125;-86
2022/04/15 03:35:37;;;;;;;14.43;7.50;;;6.70;99.90;;;;;;4994424;28;20082;-86
2022/04/15 03:38:03;;;;;;;17.70;7.77;;;6.60;99.90;;;;;;4993258;28;20088;-86
2022/04/15 03:40:29;;;;;;;16.20;7.30;;;6.70;99.90;;;;;;4994003;28;20061;-86
2022/04/15 03:42:56;;;;;;;16.33;7.63;;;6.70;99.90;;;;;;4994006;28;20051;-86
2022/04/15 03:45:22;;;;;;;18.83;7.68;;;6.70;99.90;;;;;;4994958;28;20085;-86
2022/04/15 03:47:49;;;;;;;16.67;7.43;;;6.70;99.90;;;;;;4993890;28;20125;-86
2022/04/15 03:50:15;;;;;;;17.40;7.43;;;6.70;99.90;;;;;;4994441;28;20038;-86
2022/04/15 03:52:45;;;;;;;15.10;7.47;;;6.80;99.90;;;;;;4995339;28;20386;-86
2022/04/15 03:55:12;;;;;;;18.48;7.53;;;6.80;99.90;;;;;;4998291;28;20088;-86
2022/04/15 03:57:38;;;;;;;17.10;8.25;;;6.80;99.90;;;;;;4994884;28;20047;-86
2022/04/15 04:00:06;;;;;;;16.25;7.30;;;6.80;99.90;;;;;;4994263;28;20042;-86
2022/04/15 04:02:31;;;;;;;18.13;8.10;;;6.90;99.90;;;;;;4993600;28;20046;-86
2022/04/15 04:04:57;;;;;;;16.15;7.28;;;6.90;99.90;;;;;;4993595;28;20049;-86
2022/04/15 04:07:22;;;;;;;16.00;7.60;;;6.90;99.90;;;;;;4994065;28;20130;-86
2022/04/15 04:09:48;;;;;;;15.55;7.07;;;6.90;99.90;;;;;;4994345;28;20524;-86
2022/04/15 04:12:14;;;;;;;16.08;7.05;;;6.90;99.90;;;;;;4993049;28;20044;-86
2022/04/15 04:14:39;;;;;;;18.98;7.45;;;6.90;99.90;;;;;;4993268;28;20047;-86
2022/04/15 04:17:05;;;;;;;18.17;7.60;;;6.90;99.90;;;;;;4994492;28;20097;-86
2022/04/15 04:19:30;;;;;;;18.20;7.63;;;7.00;99.90;;;;;;4994292;28;20046;-86
2022/04/15 04:21:56;;;;;;;14.43;7.13;;;7.00;99.90;;;;;;4993152;28;20387;-86
2022/04/15 04:24:21;;;;;;;16.33;7.28;;;7.00;99.90;;;;;;4993379;28;20446;-86
2022/04/15 04:26:47;;;;;;;16.40;7.25;;;7.00;99.90;;;;;;4993673;28;20434;-86
2022/04/15 04:29:12;;;;;;;19.02;7.60;;;7.00;99.90;;;;;;4994825;28;20413;-86
2022/04/15 04:31:38;;;;;;;14.93;6.90;;;7.00;99.90;;;;;;4993673;28;20074;-87
2022/04/15 04:34:04;;;;;;;15.07;7.50;;;7.00;99.90;;;;;;4992241;28;20046;-86
2022/04/15 04:36:29;;;;;;;13.40;6.60;;;7.00;99.90;;;;;;4994155;28;20117;-85
2022/04/15 04:38:55;;;;;;;18.35;7.30;;;7.00;99.90;;;;;;4992921;28;20517;-86
2022/04/15 04:41:20;;;;;;;15.20;7.00;;;7.10;99.90;;;;;;4992506;28;20421;-86
2022/04/15 04:43:46;;;;;;;14.85;7.20;;;7.10;99.90;;;;;;4992988;28;20137;-86
2022/04/15 04:46:12;;;;;;;14.73;7.07;;;7.10;99.90;;;;;;4992943;28;20081;-86
2022/04/15 04:48:38;;;;;;;16.55;7.20;;;7.10;99.90;;;;;;4992197;28;20046;-86
2022/04/15 04:51:03;;;;;;;15.35;7.22;;;7.10;99.90;;;;;;4994212;28;20046;-86
2022/04/15 04:53:29;;;;;;;16.95;7.53;;;7.10;99.90;;;;;;4992435;28;20099;-85
2022/04/15 04:55:54;;;;;;;15.55;7.45;;;7.20;99.90;;;;;;4993667;28;20050;-86
2022/04/15 04:58:20;;;;;;;17.23;7.18;;;7.20;99.90;;;;;;4994252;28;20402;-86
2022/04/15 05:00:45;;;;;;;16.08;7.20;;;7.20;99.90;;;;;;4993202;28;20050;-86
2022/04/15 05:03:11;;;;;;;16.33;8.07;;;7.20;99.90;;;;;;4992192;28;20053;-86
2022/04/15 05:05:37;;;;;;;15.15;7.05;;;7.20;99.90;;;;;;4992439;28;20391;-86
2022/04/15 05:08:03;;;;;;;13.77;7.25;;;7.20;99.90;;;;;;4991586;28;20051;-85
2022/04/15 05:10:28;;;;;;;14.88;7.20;;;7.20;99.90;;;;;;4992628;28;20136;-86
2022/04/15 05:12:54;;;;;;;16.63;7.27;;;7.20;99.90;;;;;;4993432;28;20125;-86
2022/04/15 05:15:19;;;;;;;15.27;7.55;;;7.20;99.90;;;;;;4992041;28;20051;-86
2022/04/15 05:17:45;;;;;;;17.10;8.05;;;7.20;99.90;;;;;;4993207;28;20053;-86
2022/04/15 05:20:11;;;;;;;18.70;8.43;;;7.20;99.90;;;;;;4992282;28;20049;-86
2022/04/15 05:22:37;;;;;;;17.83;8.32;;;7.20;99.90;;;;;;4991328;28;20038;-86
2022/04/15 05:25:04;;;;;;;15.75;7.82;;;7.30;99.90;;;;;;4991959;28;20042;-86
2022/04/15 05:27:32;;;;;;;16.95;7.80;;;7.30;99.90;;;;;;4992732;28;20398;-85
2022/04/15 05:29:57;;;;;;;14.10;7.60;;;7.30;99.90;;;;;;4992847;28;20046;-86
2022/04/15 05:32:23;;;;;;;17.40;8.10;;;7.30;99.90;;;;;;4993796;28;20045;-86
2022/04/15 05:34:49;;;;;;;18.05;8.82;;;7.30;99.90;;;;;;4993400;28;20050;-86
2022/04/15 05:37:14;;;;;;;16.10;8.30;;;7.30;99.90;;;;;;4991884;28;20112;-85
2022/04/15 05:39:40;;;;;;;15.68;8.13;;;7.40;99.90;;;;;;4993034;28;20050;-86
2022/04/15 05:42:06;;;;;;;15.13;7.30;;;7.40;99.90;;;;;;4993843;28;20038;-85
2022/04/15 05:44:31;;;;;;;13.68;7.68;;;7.40;99.90;;;;;;4992790;28;20515;-86
2022/04/15 05:46:57;;;;;;;14.20;7.50;;;7.40;99.90;;;;;;4993649;28;20050;-86
2022/04/15 05:49:24;;;;;;;13.25;7.10;;;7.30;99.90;;;;;;4993652;28;20414;-87
2022/04/15 05:51:50;;;;;;;12.48;6.65;;;7.40;99.90;;;;;;4993274;28;20042;-87
2022/04/15 05:54:15;;;;;;;12.15;6.90;;;7.30;99.90;;;;;;4991506;28;20053;-91
2022/04/15 05:56:41;;;;;;;12.10;6.50;;;7.40;99.90;;;;;;4991537;28;20038;-90
2022/04/15 05:59:27;;;;;;;12.60;6.22;;;7.30;99.90;;;;;;4992058;28;20053;-91
2022/04/15 06:01:59;;;;;;;12.90;6.38;;;8.20;99.90;;;;;;4992252;28;20058;-90
2022/04/15 06:04:37;;;;;;;11.38;5.90;;;7.30;99.90;;;;;;4992188;28;20066;-89
2022/04/15 06:07:12;;;;;;;12.43;6.63;;;7.10;99.90;;;;;;4993175;28;20066;-89
2022/04/15 06:09:50;;;;;;;11.02;5.43;;;7.20;99.90;;;;;;4998416;28;20046;-95
2022/04/15 06:15:41;;;;;;;;;;;;;;;;;;;;;
2022/04/15 06:18:43;;;;;;;10.32;5.20;;;7.30;99.90;;;;;;4961184;28;20094;-93
2022/04/15 06:21:09;;;;;;;11.90;5.40;;;7.20;99.90;;;;;;4979423;28;20104;-91
2022/04/15 06:26:16;;;;;;;12.10;6.13;;;7.40;99.90;;;;;;5049226;22;20374;-94
2022/04/15 06:28:54;;;;;;;11.05;5.63;;;7.50;99.90;;;;;;5035481;28;20058;-94
2022/04/15 06:31:21;;;;;;;11.77;5.63;;;7.00;99.90;;;;;;5018926;28;20136;-93
2022/04/15 06:33:52;;;;;;;11.93;5.75;;;7.20;99.90;;;;;;5035415;28;20084;-95
2022/04/15 06:36:26;;;;;;;11.50;5.47;;;7.60;99.90;;;;;;5019617;23;20114;-93
2022/04/15 06:38:54;;;;;;;;;;;7.20;99.90;;;;;;5006941;28;20050;-94
2022/04/15 06:41:22;;;;;;;11.15;5.68;;;8.40;99.90;;;;;;4998852;28;19922;-92
2022/04/15 06:43:48;;;;;;;11.73;6.32;;;7.20;99.90;;;;;;5014445;23;20107;-92
2022/04/15 06:46:16;;;;;;;10.85;5.78;;;8.20;99.90;;;;;;5036351;28;20489;-92
2022/04/15 06:48:41;;;;;;;13.77;6.50;;;7.60;99.90;;;;;;5035642;28;20037;-94
2022/04/15 06:51:07;;;;;;;12.57;6.15;;;7.30;99.90;;;;;;5039833;28;20045;-92
2022/04/15 06:53:33;;;;;;;13.95;6.95;;;7.30;99.90;;;;;;5040881;28;20048;-93
2022/04/15 06:56:25;;;;;;;14.60;7.05;;;7.30;99.90;;;;;;5035525;28;20054;-95
2022/04/15 06:58:54;;;;;;;13.27;7.18;;;7.20;99.90;;;;;;5036137;28;20136;-93
2022/04/15 07:01:20;;;;;;;12.50;7.20;;;7.20;99.90;;;;;;5036647;28;20084;-93
2022/04/15 07:03:49;;;;;;;14.25;6.65;;;8.30;99.90;;;;;;5037541;28;20427;-92
2022/04/15 07:06:29;;;;;;;14.02;7.28;;;7.00;99.90;;;;;;5035975;28;20080;-94
2022/04/15 07:09:04;;;;;;;13.77;7.20;;;7.30;99.90;;;;;;5073014;22;20041;-92
2022/04/15 07:11:38;;;;;;;14.38;8.05;;;7.30;99.90;;;;;;5037450;28;20591;-93
2022/04/15 07:16:42;;;;;;;13.15;7.72;;;7.40;99.90;;;;;;5068497;22;20504;-94
2022/04/15 07:19:07;;;;;;;13.40;7.28;;;7.10;99.90;;;;;;5038060;28;20045;-94
2022/04/15 07:21:42;;;;;;;13.95;7.18;;;7.10;99.90;;;;;;5037162;28;20087;-92
2022/04/15 07:24:33;;;;;;;12.65;6.60;;;7.20;99.90;;;;;;5055841;28;20055;-94
2022/04/15 07:27:02;;;;;;;12.88;7.15;;;7.30;99.90;;;;;;5005496;22;20049;-93
2022/04/15 07:29:30;;;;;;;13.60;7.37;;;7.40;99.90;;;;;;5034711;28;20489;-95
2022/04/15 07:31:56;;;;;;;13.80;6.83;;;7.40;99.90;;;;;;5034892;28;20101;-94
2022/04/15 07:34:26;;;;;;;16.03;7.20;;;7.40;99.90;;;;;;5036129;28;20038;-93
2022/04/15 07:36:55;;;;;;;16.43;7.97;;;7.40;99.90;;;;;;5035768;28;20080;-93
2022/04/15 07:39:43;;;;;;;16.60;7.70;;;8.10;99.90;;;;;;5036008;28;20412;-94
2022/04/15 07:42:57;;;;;;;16.38;7.82;;;7.60;99.90;;;;;;5040565;28;20540;-93
2022/04/15 07:45:23;;;;;;;14.80;7.60;;;7.60;99.90;;;;;;5034281;28;20543;-93
2022/04/15 07:48:04;;;;;;;15.30;7.72;;;8.90;99.90;;;;;;5033813;28;20500;-92
2022/04/15 07:50:49;;;;;;;15.80;8.00;;;7.70;99.90;;;;;;5033096;28;20103;-93
2022/04/15 07:53:37;;;;;;;15.00;8.07;;;7.60;99.90;;;;;;5035237;28;20045;-95
2022/04/15 07:56:23;;;;;;;16.00;8.02;;;8.50;99.90;;;;;;5034764;28;20041;-94
2022/04/15 07:59:07;;;;;;;16.25;8.82;;;9.10;99.90;;;;;;5033635;28;20080;-92
2022/04/15 08:01:33;;;;;;;16.42;8.20;;;7.20;99.90;;;;;;5033979;28;20087;-93
2022/04/15 08:04:10;;;;;;;18.02;8.80;;;7.90;99.90;;;;;;5032912;28;20057;-93
2022/04/15 08:06:37;;;;;;;16.83;8.82;;;8.20;99.90;;;;;;5033432;28;20041;-93
2022/04/15 08:09:17;;;;;;;19.95;9.50;;;7.90;99.90;;;;;;5034523;28;20567;-93
2022/04/15 08:11:57;;;;;;;16.75;9.05;;;7.70;99.90;;;;;;5034019;28;20050;-93
2022/04/15 08:14:41;;;;;;;17.00;8.23;;;7.80;99.90;;;;;;5033607;28;20045;-92
2022/04/15 08:17:07;;;;;;;16.73;8.75;;;7.80;99.90;;;;;;5034169;28;20485;-92
2022/04/15 08:19:47;;;;;;;15.05;8.45;;;8.40;99.90;;;;;;5032215;28;20039;-93
2022/04/15 08:22:22;;;;;;;18.63;8.75;;;8.10;99.90;;;;;;5012320;28;20046;-91
2022/04/15 08:24:47;;;;;;;19.27;9.60;;;9.60;99.90;;;;;;5014334;28;20053;-95
2022/04/15 08:27:13;;;;;;;16.73;8.57;;;8.40;99.90;;;;;;5013506;28;20054;-88
2022/04/15 08:29:49;;;;;;;17.23;9.35;;;8.30;99.90;;;;;;5013199;28;20054;-93
2022/04/15 08:32:35;;;;;;;17.58;9.70;;;8.10;99.90;;;;;;5013487;28;20192;-93
2022/04/15 08:35:13;;;;;;;16.65;9.07;;;8.20;99.90;;;;;;5014354;28;20038;-94
2022/04/15 08:37:41;;;;;;;17.45;9.68;;;8.40;99.90;;;;;;5013846;28;20050;-94
2022/04/15 08:40:15;;;;;;;18.40;9.50;;;8.20;99.90;;;;;;5013934;28;20133;-90
2022/04/15 08:42:44;;;;;;;;;;;8.30;99.90;;;;;;5014218;28;20045;-91
2022/04/15 08:45:13;;;;;;;19.58;9.98;;;8.40;99.90;;;;;;5024043;28;19921;-91
2022/04/15 08:47:40;;;;;;;19.58;10.05;;;7.30;99.90;;;;;;5014517;28;20049;-91
2022/04/15 08:50:14;;;;;;;20.08;9.73;;;8.30;99.90;;;;;;5012727;28;20065;-91
2022/04/15 08:53:04;;;;;;;19.42;10.10;;;9.40;99.90;;;;;;5012195;28;20056;-92
2022/04/15 08:55:44;;;;;;;19.48;9.85;;;8.70;99.90;;;;;;5012382;28;20054;-92
2022/04/15 08:58:10;;;;;;;24.52;10.55;;;8.50;99.90;;;;;;5012601;28;20046;-93
2022/04/15 09:00:36;;;;;;;19.98;10.27;;;8.40;99.90;;;;;;5012914;28;20037;-92
2022/04/15 09:03:03;;;;;;;20.92;10.93;;;8.50;99.90;;;;;;5014488;28;20524;-91
2022/04/15 09:09:19;;;;;;;20.10;9.93;;;8.80;99.90;;;;;;5034905;28;20045;-91
2022/04/15 09:11:49;;;;;;;16.98;9.10;;;9.00;99.90;;;;;;5032829;28;20284;-93
2022/04/15 09:14:15;;;;;;;16.83;8.93;;;8.80;99.90;;;;;;5033678;28;20046;-88
2022/04/15 09:17:04;;;;;;;16.17;8.70;;;9.50;99.90;;;;;;5031779;28;20045;-93
2022/04/15 09:19:39;;;;;;;15.68;7.88;;;9.10;99.90;;;;;;5035087;28;20511;-94
2022/04/15 09:22:20;;;;;;;16.17;8.63;;;8.70;99.90;;;;;;5039581;28;20060;-94
2022/04/15 09:25:06;;;;;;;14.85;8.07;;;8.90;99.90;;;;;;5036834;28;20052;-95
2022/04/15 09:27:57;;;;;;;15.80;8.98;;;9.20;99.90;;;;;;5044969;28;20060;-94
2022/04/15 09:30:48;;;;;;;15.13;8.50;;;8.70;99.90;;;;;;5036038;28;20048;-94
2022/04/15 09:33:23;;;;;;;21.30;9.40;;;9.90;99.90;;;;;;5013827;22;20042;-94
2022/04/15 09:35:58;;;;;;;15.02;8.30;;;9.20;99.90;;;;;;4977365;28;20143;-94
2022/04/15 09:39:02;;;;;;;15.98;8.27;;;9.40;99.90;;;;;;5001280;28;20173;-95
2022/04/15 09:41:31;;;;;;;14.90;7.63;;;9.40;99.90;;;;;;4964865;28;20047;-94
2022/04/15 09:44:00;;;;;;;13.98;6.93;;;9.40;99.90;;;;;;4973892;28;20046;-94
2022/04/15 09:47:13;;;;;;;13.55;6.90;;;9.60;99.90;;;;;;4983427;28;20062;-94
2022/04/15 09:49:44;;;;;;;14.25;6.65;;;9.40;99.90;;;;;;4989477;28;20057;-94
2022/04/15 09:52:10;;;;;;;13.57;6.30;;;9.40;99.90;;;;;;4999505;28;20058;-94
2022/04/15 09:57:58;;;;;;;12.85;6.20;;;10.00;99.90;;;;;;5000181;28;20058;-96
2022/04/15 10:00:41;;;;;;;14.02;6.05;;;9.70;99.90;;;;;;4986686;28;20043;-95
2022/04/15 10:06:25;;;;;;;12.88;6.15;;;10.40;99.90;;;;;;5234280;22;20060;-96
2022/04/15 10:08:53;;;;;;;12.00;6.10;;;9.50;99.90;;;;;;5045466;28;20078;-96
2022/04/15 10:11:27;;;;;;;11.60;6.05;;;10.60;99.90;;;;;;5063072;28;20069;-96
2022/04/15 10:13:59;;;;;;;11.00;6.10;;;10.10;99.90;;;;;;5043992;28;20037;-95
2022/04/15 10:16:39;;;;;;;13.63;6.53;;;10.40;99.90;;;;;;5022288;28;20088;-96
2022/04/15 10:19:17;;;;;;;12.40;6.18;;;10.40;99.90;;;;;;5062611;28;20040;-96
2022/04/15 10:21:49;;;;;;;12.98;6.32;;;10.30;99.90;;;;;;5042571;28;20048;-96
2022/04/15 10:24:16;;;;;;;13.38;6.45;;;10.70;99.90;;;;;;5074323;28;20041;-96
2022/04/15 10:26:49;;;;;;;13.00;6.47;;;11.10;99.90;;;;;;5067517;28;20055;-96
2022/04/15 10:29:15;;;;;;;13.02;6.57;;;10.70;99.90;;;;;;5065792;28;20051;-96
2022/04/15 10:31:45;;;;;;;12.90;6.45;;;10.50;99.90;;;;;;5062304;28;20053;-96
2022/04/15 10:34:16;;;;;;;17.40;6.50;;;11.10;99.90;;;;;;5040567;28;20044;-96
2022/04/15 10:36:53;;;;;;;12.80;6.50;;;11.90;99.90;;;;;;5057681;28;20052;-96
2022/04/15 10:39:24;;;;;;;13.00;6.22;;;11.30;99.90;;;;;;5035169;28;20041;-91
2022/04/15 10:44:41;;;;;;;14.35;6.63;;;10.50;99.90;;;;;;5018862;22;20046;-93
2022/04/15 10:47:27;;;;;;;12.85;5.90;;;10.50;99.90;;;;;;5012286;28;20050;-93
2022/04/15 10:50:05;;;;;;;12.15;6.63;;;10.60;99.90;;;;;;5012234;28;20096;-93
2022/04/15 10:52:34;;;;;;;12.93;6.10;;;10.60;99.90;;;;;;5019946;28;20053;-91
2022/04/15 10:55:22;;;;;;;11.40;6.00;;;10.70;99.90;;;;;;4997997;28;20042;-96
2022/04/15 10:58:12;;;;;;;12.80;6.10;;;10.70;99.90;;;;;;5047419;22;20060;-92
2022/04/15 11:04:05;;;;;;;13.68;6.60;;;10.80;99.90;;;;;;5069355;22;20044;-95
2022/04/15 11:06:31;;;;;;;12.75;6.13;;;10.90;99.90;;;;;;5045960;28;20053;-93
2022/04/15 11:09:11;;;;;;;15.10;6.32;;;11.00;99.90;;;;;;5043651;28;20087;-94
2022/04/15 11:11:40;;;;;;;13.25;6.50;;;11.00;99.90;;;;;;5046435;28;20052;-90
2022/04/15 11:14:08;;;;;;;12.50;6.38;;;11.20;99.90;;;;;;5045542;28;20041;-94
2022/04/15 11:16:46;;;;;;;13.98;6.40;;;11.10;99.90;;;;;;5045479;28;20041;-92
2022/04/15 11:19:17;;;;;;;12.98;5.95;;;11.10;99.90;;;;;;5040833;28;20485;-92
2022/04/15 11:21:50;;;;;;;13.45;6.55;;;10.90;99.90;;;;;;5046114;28;20047;-91
2022/04/15 11:24:22;;;;;;;14.25;6.43;;;11.00;99.90;;;;;;5041746;28;20047;-92
2022/04/15 11:26:48;;;;;;;11.82;5.95;;;10.90;99.90;;;;;;5042106;28;20049;-92
2022/04/15 11:29:14;;;;;;;12.38;6.38;;;10.90;99.90;;;;;;5044405;28;20037;-90
2022/04/15 11:31:59;;;;;;;14.25;6.35;;;11.00;99.90;;;;;;5039875;28;20060;-90
2022/04/15 11:34:42;;;;;;;14.48;6.80;;;10.80;99.90;;;;;;5045538;28;20112;-91
2022/04/15 11:37:17;;;;;;;12.30;6.63;;;10.80;99.90;;;;;;5041398;28;20045;-91
2022/04/15 11:39:46;;;;;;;12.30;6.18;;;10.80;99.90;;;;;;5043357;28;20041;-90
2022/04/15 11:42:58;;;;;;;13.38;6.35;;;11.50;99.90;;;;;;5070589;22;20073;-91
2022/04/15 11:45:42;;;;;;;14.38;6.50;;;10.30;99.90;;;;;;5024400;28;20486;-91
2022/04/15 11:48:25;;;;;;;12.18;6.25;;;10.90;99.90;;;;;;5024032;28;20044;-91
2022/04/15 11:51:06;;;;;;;14.18;6.50;;;10.90;99.90;;;;;;5012870;28;20038;-91
2022/04/15 11:53:50;;;;;;;15.13;6.38;;;11.60;99.90;;;;;;5020958;28;20486;-90
2022/04/15 11:56:25;;;;;;;14.15;6.70;;;12.10;99.90;;;;;;5027373;28;20045;-90
2022/04/15 11:59:13;;;;;;;13.70;6.47;;;11.40;99.90;;;;;;5022182;28;20420;-91
2022/04/15 12:02:01;;;;;;;11.45;6.32;;;11.00;99.90;;;;;;5024205;28;20088;-92
2022/04/15 12:04:29;;;;;;;14.85;6.72;;;11.20;99.90;;;;;;5026970;28;20049;-89
2022/04/15 12:07:15;;;;;;;13.73;6.47;;;11.30;99.90;;;;;;5034117;28;20037;-88
2022/04/15 12:09:44;;;;;;;12.57;6.82;;;11.40;99.90;;;;;;5032176;28;20045;-90
2022/04/15 12:12:10;;;;;;;11.48;6.45;;;11.30;99.90;;;;;;5032936;28;20440;-89
2022/04/15 12:14:37;;;;;;;13.75;6.32;;;11.60;99.90;;;;;;5034407;28;20041;-92
2022/04/15 12:17:03;;;;;;;13.20;6.75;;;11.30;99.90;;;;;;5031866;28;20465;-89
2022/04/15 12:19:29;;;;;;;11.00;6.20;;;11.20;99.90;;;;;;5024453;28;20128;-89
2022/04/15 12:21:54;;;;;;;11.93;6.65;;;11.00;99.90;;;;;;5014343;28;20116;-89
2022/04/15 12:24:22;;;;;;;13.38;6.78;;;11.00;99.90;;;;;;5012164;28;20390;-89
2022/04/15 12:26:49;;;;;;;14.55;7.32;;;10.90;99.90;;;;;;5012545;28;20528;-90
2022/04/15 12:32:49;;;;;;;14.05;6.70;;;10.90;99.90;;;;;;5012224;28;20049;-91
2022/04/15 12:35:14;;;;;;;12.88;6.78;;;10.80;99.90;;;;;;5013254;28;20367;-92
2022/04/15 12:37:53;;;;;;;13.10;6.55;;;10.70;99.90;;;;;;5019432;28;20048;-89
2022/04/15 12:40:22;;;;;;;12.25;6.22;;;11.40;99.90;;;;;;5013786;28;20401;-89
2022/04/15 12:42:49;;;;;;;13.27;6.60;;;10.90;99.90;;;;;;5022582;28;20058;-89
2022/04/15 12:45:24;;;;;;;12.20;6.65;;;11.00;99.90;;;;;;5042505;22;20049;-89
2022/04/15 12:48:11;;;;;;;14.32;6.00;;;11.10;99.90;;;;;;5067153;28;20038;-90
2022/04/15 12:50:37;;;;;;;13.23;6.57;;;10.80;99.90;;;;;;5062085;28;20042;-88
2022/04/15 12:53:20;;;;;;;12.48;7.03;;;10.60;99.90;;;;;;5066108;28;20447;-90
2022/04/15 12:56:36;;;;;;;13.90;6.97;;;10.50;99.90;;;;;;5060372;28;20079;-89
2022/04/15 12:59:02;;;;;;;12.57;6.97;;;9.90;99.90;;;;;;4984870;28;20426;-90
2022/04/15 13:01:34;;;;;;;14.23;7.38;;;10.20;99.90;;;;;;5004976;28;20054;-89
2022/04/15 13:04:02;;;;;;;13.32;7.03;;;10.30;99.90;;;;;;4999794;28;20058;-88
2022/04/15 13:06:28;;;;;;;13.13;6.35;;;10.30;99.90;;;;;;5019506;28;20048;-89
2022/04/15 13:08:54;;;;;;;14.65;6.78;;;10.10;99.90;;;;;;5061653;28;20392;-89
2022/04/15 13:11:19;;;;;;;13.80;6.82;;;9.40;99.90;;;;;;5062392;28;20059;-90
2022/04/15 13:13:45;;;;;;;12.60;6.60;;;10.10;99.90;;;;;;5058892;28;20037;-89
2022/04/15 13:16:10;;;;;;;13.57;6.55;;;10.20;99.90;;;;;;5072792;28;20072;-89
2022/04/15 13:18:47;;;;;;;12.82;6.65;;;10.20;99.90;;;;;;5071874;28;20047;-90
2022/04/15 13:21:25;;;;;;;12.40;6.68;;;10.30;99.90;;;;;;5071548;28;20044;-92
2022/04/15 13:24:00;;;;;;;18.02;6.72;;;10.20;99.90;;;;;;5071456;28;20487;-90
2022/04/15 13:26:37;;;;;;;13.73;6.82;;;10.10;99.90;;;;;;5072898;28;20125;-89
2022/04/15 13:29:15;;;;;;;14.68;7.30;;;10.10;99.90;;;;;;5072649;28;20131;-88
2022/04/15 13:31:53;;;;;;;16.05;7.60;;;10.00;99.90;;;;;;5073119;28;20048;-89